createdAt,value
2019-05-07T00:03:38.867Z,4.10
2019-05-07T00:18:39.032Z,4.70
2019-05-07T00:33:39.238Z,4.90
2019-05-07T00:48:41.709Z,5.60
2019-05-07T01:03:42.503Z,6.20
2019-05-07T01:18:43.328Z,7.10
2019-05-07T01:33:43.527Z,7.10
2019-05-07T01:48:43.753Z,8.60
2019-05-07T02:03:43.929Z,8.40
2019-05-07T02:18:44.161Z,8.60
2019-05-07T02:33:44.366Z,10.10
2019-05-07T02:48:44.545Z,10.40
2019-05-07T03:03:45.091Z,10.60
2019-05-07T03:18:44.873Z,10.70
2019-05-07T03:33:46.979Z,11.70
2019-05-07T03:48:48.278Z,13.00
2019-05-07T04:03:48.466Z,13.50
2019-05-07T04:18:48.663Z,13.70
2019-05-07T04:33:48.981Z,13.50
2019-05-07T04:48:49.089Z,13.10
2019-05-07T05:03:49.272Z,11.80
2019-05-07T05:18:51.621Z,10.80
2019-05-07T05:33:52.736Z,9.90
2019-05-07T05:48:53.498Z,9.40
2019-05-07T06:03:53.702Z,7.90
2019-05-07T06:18:54.355Z,5.90
2019-05-07T06:33:54.523Z,5.70
2019-05-07T06:48:54.771Z,3.80
2019-05-07T07:03:54.849Z,3.70
2019-05-07T07:18:55.894Z,2.50
2019-05-07T07:33:56.374Z,2.60
2019-05-07T07:49:09.924Z,1.80
2019-05-07T08:04:02.983Z,1.80
2019-05-07T08:19:17.568Z,1.90
2019-05-07T08:34:08.608Z,1.50
2019-05-07T08:49:08.882Z,1.30
2019-05-07T09:04:09.070Z,1.30
2019-05-07T09:19:09.251Z,1.50
2019-05-07T09:34:09.335Z,1.40
2019-05-07T09:49:09.581Z,1.20
2019-05-07T10:04:09.812Z,1.20
2019-05-07T10:19:09.980Z,1.10
2019-05-07T10:34:12.221Z,1.30
2019-05-07T10:49:12.430Z,1.00
2019-05-07T11:04:12.874Z,1.10
2019-05-07T11:19:12.890Z,0.70
2019-05-07T11:34:13.881Z,1.30
2019-05-07T11:49:14.004Z,1.00
2019-05-07T12:04:14.212Z,1.50
2019-05-07T12:19:16.570Z,0.80
2019-05-07T12:34:16.459Z,1.30
2019-05-07T12:49:16.797Z,1.00
2019-05-07T13:04:16.974Z,1.30
2019-05-07T13:19:17.212Z,1.00
2019-05-07T13:34:17.507Z,1.80
2019-05-07T13:49:17.637Z,1.60
2019-05-07T14:04:17.832Z,1.20
2019-05-07T14:19:17.921Z,1.30
2019-05-07T14:34:18.239Z,1.10
2019-05-07T14:49:18.351Z,16.70
2019-05-07T15:04:18.543Z,1.00
2019-05-07T15:19:18.762Z,1.40
2019-05-07T15:34:18.889Z,1.10
2019-05-07T15:49:21.539Z,0.90
2019-05-07T16:04:23.206Z,1.40
2019-05-07T16:19:25.888Z,1.00
2019-05-07T16:34:25.968Z,1.10
2019-05-07T16:49:26.077Z,1.00
2019-05-07T17:04:26.223Z,0.90
2019-05-07T17:19:26.447Z,0.90
2019-05-07T17:34:26.603Z,0.90
2019-05-07T17:49:26.707Z,2.20
2019-05-07T18:04:26.849Z,1.70
2019-05-07T18:19:27.069Z,2.40
2019-05-07T18:34:27.274Z,4.30
2019-05-07T18:49:27.483Z,5.30
2019-05-07T19:04:30.123Z,5.10
2019-05-07T19:19:32.802Z,7.90
2019-05-07T19:34:33.016Z,12.60
2019-05-07T19:49:33.216Z,13.90
2019-05-07T20:04:35.116Z,9.20
2019-05-07T20:19:35.583Z,4.90
2019-05-07T20:34:35.894Z,4.10
2019-05-07T20:49:36.112Z,4.40
2019-05-07T21:04:36.428Z,6.20
2019-05-07T21:19:36.740Z,9.30
2019-05-07T21:34:37.014Z,10.30
2019-05-07T21:49:37.127Z,8.00
2019-05-07T22:04:37.437Z,8.80
2019-05-07T22:19:37.508Z,10.50
2019-05-07T22:34:37.797Z,8.30
2019-05-07T22:49:38.061Z,7.40
2019-05-07T23:04:38.364Z,7.50
2019-05-07T23:19:38.491Z,6.60
2019-05-07T23:34:38.666Z,7.00
2019-05-07T23:49:38.812Z,5.00
